Flight Track Log - Related Links

Times and Time Zones

All times are in EDT time to prevent confusion due to time zone crossing. See the DAL4888 flight status page for this flight to view local times or setup timezone preferences in your user account.

Time Position Orientation Groundspeed Altitude Reporting Facility
EDT Latitude Longitude Course Direction KTS MPH feet Rate Location/Type
Thu 08:32:14 PM 32.4547 -91.9822 90° East 236 272 4,800  Level Memphis Center
Thu 08:33:14 PM 32.4456 -91.8886 97° East 270 311 7,700 2,700 Climbing Memphis Center
Thu 08:34:14 PM 32.4486 -91.7925 88° East 285 328 10,200 1,900 Climbing Memphis Center
Thu 08:35:14 PM 32.4458 -91.6867 92° East 304 350 11,500 1,550 Climbing Memphis Center
Thu 08:36:00 PM 32.4833 -91.4816 90° East  Level FlightAware Approximate
Thu 08:36:14 PM 32.4406 -91.5708 93° East 331 381 13,300  Level Memphis Center
Thu 08:37:00 PM 32.4833 -91.3711 90° East  Level FlightAware Approximate
Thu 08:37:14 PM 32.4417 -91.4478 89° East 353 406 14,700  Level Memphis Center
Thu 08:38:14 PM 32.4406 -91.3247 91° East 365 420 16,200 1,900 Climbing Memphis Center
Thu 08:39:14 PM 32.4394 -91.2139 91° East 370 426 18,500 2,250 Climbing Memphis Center
Thu 08:40:14 PM 32.4381 -91.0958 91° East 360 414 20,700 1,800 Climbing Memphis Center
Thu 08:41:14 PM 32.4344 -90.9850 92° East 350 403 22,100 1,275 Climbing Memphis Center
Thu 08:43:00 PM 32.4559 -90.7882 94° East  Level FlightAware Approximate
Thu 08:44:14 PM 32.4294 -90.6231 94° East 356 410 25,800  Level Memphis Center
Thu 08:45:14 PM 32.4233 -90.5000 93° East 366 421 27,000 600 Climbing Memphis Center
Thu 08:46:14 PM 32.4214 -90.3722 91° East 372 428 27,000  Level Memphis Center
Thu 08:47:14 PM 32.4192 -90.2492 91° East 372 428 27,000  Level Memphis Center
Thu 08:48:14 PM 32.4169 -90.1236 91° East 377 434 27,000  Level Memphis Center
Thu 08:49:14 PM 32.4147 -90.0006 91° East 377 434 27,000  Level Memphis Center
Thu 08:50:14 PM 32.4100 -89.8678 92° East 371 427 27,000  Level Memphis Center
Thu 08:51:14 PM 32.4075 -89.7519 91° East 365 420 27,000  Level Memphis Center
Thu 08:52:14 PM 32.4047 -89.6289 91° East 365 420 27,000  Level Memphis Center
Thu 08:53:14 PM 32.3997 -89.5083 93° East 365 420 27,000  Level Memphis Center
Thu 08:54:14 PM 32.3967 -89.3881 92° East 365 420 27,000  Level Memphis Center
Thu 08:55:14 PM 32.3956 -89.2650 91° East 365 420 27,000  Level Memphis Center
Thu 08:56:14 PM 32.3883 -89.1419 94° East 365 420 27,000  Level Memphis Center
Thu 08:57:14 PM 32.3869 -89.0189 91° East 370 426 27,000  Level Memphis Center
Thu 08:58:14 PM 32.3814 -88.9011 93° East 365 420 27,000  Level Memphis Center
Thu 09:00:21 PM 32.3972 -88.6486 86° East 363 418 27,000  Level Atlanta Center
Thu 09:01:21 PM 32.4122 -88.5264 82° East 368 423 27,000  Level Atlanta Center
Thu 09:02:21 PM 32.4269 -88.4067 82° East 368 423 27,000  Level Atlanta Center
Thu 09:03:21 PM 32.4394 -88.2892 83° East 363 418 27,000  Level Atlanta Center
Thu 09:04:21 PM 32.4539 -88.1692 82° East 369 425 27,000  Level Atlanta Center
Thu 09:05:21 PM 32.4683 -88.0492 82° East 369 425 27,000  Level Atlanta Center
Thu 09:06:21 PM 32.4847 -87.9244 81° East 375 432 27,000  Level Atlanta Center
Thu 09:07:21 PM 32.5114 -87.8097 75° East 375 432 27,000  Level Atlanta Center
Thu 09:08:21 PM 32.5378 -87.6928 75° East 369 425 27,000  Level Atlanta Center
Thu 09:09:21 PM 32.5664 -87.5756 74° East 364 419 27,000  Level Atlanta Center
Thu 09:10:21 PM 32.5864 -87.4581 79° East 364 419 27,000  Level Atlanta Center
Thu 09:11:21 PM 32.6125 -87.3431 75° East 364 419 27,000 -450 Level Atlanta Center
Thu 09:12:21 PM 32.6386 -87.2233 75° East 364 419 26,100 -1,050 Descending Atlanta Center
Thu 09:13:21 PM 32.6667 -87.0961 75° East 374 430 24,900 -1,050 Descending Atlanta Center
Thu 09:14:21 PM 32.6928 -86.9711 76° East 381 438 24,000 -450 Descending Atlanta Center
Thu 09:15:21 PM 32.7189 -86.8411 77° East 393 452 24,000  Level Atlanta Center
Thu 09:16:21 PM 32.7467 -86.7136 75° East 393 452 24,000  Level Atlanta Center
Thu 09:17:21 PM 32.7722 -86.5883 76° East 393 452 24,000  Level Atlanta Center
Thu 09:18:21 PM 32.7978 -86.4631 76° East 393 452 24,000  Level Atlanta Center
Thu 09:19:21 PM 32.8253 -86.3353 76° East 393 452 24,000  Level Atlanta Center
Thu 09:20:21 PM 32.8506 -86.2025 77° East 400 460 24,000  Level Atlanta Center
Thu 09:21:21 PM 32.8819 -86.0819 73° East 390 449 24,000  Level Atlanta Center
Thu 09:22:21 PM 32.9172 -85.9592 71° East 390 449 24,000  Level Atlanta Center
Thu 09:23:21 PM 32.9525 -85.8361 71° East 390 449 24,000  Level Atlanta Center
Thu 09:24:21 PM 32.9897 -85.7156 70° East 385 443 24,000  Level Atlanta Center
Thu 09:25:21 PM 33.0225 -85.5972 72° East 380 437 24,000  Level Atlanta Center
Thu 09:26:21 PM 33.0575 -85.4739 71° East 380 437 24,000  Level Atlanta Center
Thu 09:27:21 PM 33.0922 -85.3578 70° East 380 437 24,000 -1,900 Level Atlanta Center
Thu 09:28:21 PM 33.1247 -85.2417 71° East 370 426 20,200 -4,300 Descending Atlanta Center
Thu 09:29:21 PM 33.1569 -85.1331 70° East 359 413 15,400 -3,100 Descending Atlanta Center
Thu 09:30:21 PM 33.1975 -85.0169 67° East 364 419 14,000 -700 Descending Atlanta Center
Thu 09:31:21 PM 33.2631 -84.9283 48° Northeast 359 413 14,000 -700 Level Atlanta Center
Thu 09:32:21 PM 33.3094 -84.8292 61° Northeast 346 398 12,600 -1,000 Descending Atlanta Center
Thu 09:33:21 PM 33.3539 -84.7353 60° Northeast 330 380 12,000 -300 Descending Atlanta Center
Thu 09:34:21 PM 33.4147 -84.6833 35° Northeast 274 315 12,000  Level Atlanta Center
Thu 09:35:21 PM 33.4667 -84.7486 314° West 209 241 12,000  Level Atlanta Center
Thu 09:36:21 PM 33.4306 -84.8353 243° Southwest 168 193 12,000  Level Atlanta Center
Thu 09:37:21 PM 33.3656 -84.9019 221° Southwest 263 303 12,000  Level Atlanta Center
Thu 09:38:21 PM 33.2925 -84.8639 156° South 255 293 12,000 35 Level Atlanta Center
Thu 09:40:11 PM 33.3667 -84.7500 52° Northeast 259 298 12,100 35 Climbing Atlanta TRACON
Thu 09:41:11 PM 33.4333 -84.7667 348° North 262 302 12,100  Level Atlanta TRACON
Thu 09:42:11 PM 33.5000 -84.8167 328° Northwest 286 329 12,100  Level Atlanta TRACON
Thu 09:43:11 PM 33.5667 -84.8833 320° Northwest 306 352 12,100  Level Atlanta TRACON
Thu 09:44:11 PM 33.6500 -84.9000 351° North 279 321 12,100  Level Atlanta TRACON
Thu 09:45:17 PM 33.7333 -84.9167 351° North 286 329 12,100  Level Atlanta TRACON
Thu 09:46:17 PM 33.7667 -84.8333 64° Northeast 306 352 12,100  Level Atlanta TRACON
Thu 09:47:17 PM 33.7667 -84.7333 90° East 321 369 12,100  Level Atlanta TRACON
Thu 09:48:17 PM 33.7500 -84.6333 101° East 309 356 12,100 -91 Level Atlanta TRACON
Thu 09:49:29 PM 33.7500 -84.5000 90° East 310 357 11,900 -1,000 Descending Atlanta TRACON
Thu 09:50:29 PM 33.7333 -84.4167 104° East 276 318 9,900 -2,111 Descending Atlanta TRACON
Thu 09:51:17 PM 33.7333 -84.3333 90° East 262 302 8,100 -2,111 Descending Atlanta TRACON
Thu 09:52:17 PM 33.7167 -84.2500 103° East 254 292 6,100 -2,100 Descending Atlanta TRACON
Thu 09:53:17 PM 33.6667 -84.2333 164° South 257 296 3,900 -1,545 Descending Atlanta TRACON
Thu 09:54:29 PM 33.6500 -84.3000 253° West 208 239 2,700 -1,000 Descending Atlanta TRACON

Login

Don't have an account? Register now (free) for customized features, flight alerts, and more!